createdAt,value
2023-04-17T00:02:11.547Z,12.07
2023-04-17T00:04:41.735Z,12.13
2023-04-17T00:07:12.717Z,11.77
2023-04-17T00:09:41.444Z,11.37
2023-04-17T00:12:10.051Z,12.27
2023-04-17T00:14:38.614Z,12.47
2023-04-17T00:17:07.287Z,12.20
2023-04-17T00:19:35.909Z,11.57
2023-04-17T00:22:06.004Z,12.70
2023-04-17T00:24:34.668Z,12.20
2023-04-17T00:27:03.301Z,12.00
2023-04-17T00:29:32.692Z,12.53
2023-04-17T00:32:01.389Z,12.10
2023-04-17T00:34:30.110Z,11.93
2023-04-17T00:36:59.142Z,12.87
2023-04-17T00:39:29.081Z,11.80
2023-04-17T00:41:58.428Z,11.43
2023-04-17T00:44:27.448Z,12.90
2023-04-17T00:46:56.256Z,12.27
2023-04-17T00:49:25.766Z,11.73
2023-04-17T00:51:54.611Z,12.50
2023-04-17T00:54:24.224Z,12.00
2023-04-17T00:56:57.491Z,11.43
2023-04-17T00:59:26.346Z,10.70
2023-04-17T01:01:55.068Z,10.33
2023-04-17T01:04:23.998Z,10.50
2023-04-17T01:06:53.665Z,10.87
2023-04-17T01:09:22.249Z,10.13
2023-04-17T01:11:50.916Z,10.93
2023-04-17T01:14:20.829Z,11.27
2023-04-17T01:16:50.412Z,10.63
2023-04-17T01:19:19.577Z,11.30
2023-04-17T01:21:48.228Z,10.93
2023-04-17T01:24:18.246Z,11.43
2023-04-17T01:26:46.916Z,11.77
2023-04-17T01:29:15.516Z,10.73
2023-04-17T01:31:44.069Z,10.40
2023-04-17T01:34:12.698Z,11.43
2023-04-17T01:36:41.366Z,11.23
2023-04-17T01:39:10.162Z,11.53
2023-04-17T01:41:40.306Z,12.03
2023-04-17T01:44:08.936Z,10.70
2023-04-17T01:46:37.650Z,11.27
2023-04-17T01:49:06.565Z,10.97
2023-04-17T01:51:35.288Z,10.80
2023-04-17T01:54:03.934Z,11.00
2023-04-17T01:56:32.537Z,10.60
2023-04-17T01:59:02.462Z,10.77
2023-04-17T02:01:31.798Z,11.33
2023-04-17T02:04:00.734Z,11.90
2023-04-17T02:06:29.393Z,11.67
2023-04-17T02:08:58.086Z,11.17
2023-04-17T02:11:27.263Z,10.80
2023-04-17T02:13:55.902Z,10.23
2023-04-17T02:16:25.891Z,11.57
2023-04-17T02:18:54.549Z,10.77
2023-04-17T02:21:23.126Z,11.40
2023-04-17T02:23:51.751Z,11.80
2023-04-17T02:26:20.871Z,12.10
2023-04-17T02:28:49.533Z,12.30
2023-04-17T02:31:18.227Z,11.80
2023-04-17T02:33:48.235Z,12.70
2023-04-17T02:36:17.087Z,13.30
2023-04-17T02:38:45.906Z,12.93
2023-04-17T02:41:14.505Z,13.00
2023-04-17T02:43:43.123Z,12.43
2023-04-17T02:46:12.881Z,12.50
2023-04-17T02:48:41.511Z,13.30
2023-04-17T02:51:11.737Z,12.07
2023-04-17T02:53:41.119Z,11.90
2023-04-17T02:56:09.703Z,13.03
2023-04-17T02:58:38.337Z,13.70
2023-04-17T03:01:07.025Z,13.47
2023-04-17T03:03:38.707Z,14.10
2023-04-17T03:06:08.180Z,13.03
2023-04-17T03:08:38.897Z,12.30
2023-04-17T03:11:07.591Z,12.37
2023-04-17T03:13:37.398Z,12.73
2023-04-17T03:16:07.050Z,13.30
2023-04-17T03:18:36.357Z,13.23
2023-04-17T03:21:04.924Z,12.20
2023-04-17T03:23:33.690Z,12.40
2023-04-17T03:26:03.634Z,13.80
2023-04-17T03:28:32.405Z,14.30
2023-04-17T03:31:01.007Z,15.07
2023-04-17T03:33:29.624Z,14.10
2023-04-17T03:35:58.205Z,12.53
2023-04-17T03:38:26.841Z,12.70
2023-04-17T03:40:55.533Z,13.50
2023-04-17T03:43:25.527Z,13.70
2023-04-17T03:45:54.157Z,14.33
2023-04-17T03:48:22.763Z,13.60
2023-04-17T03:50:52.436Z,15.10
2023-04-17T03:53:21.250Z,13.43
2023-04-17T03:55:50.059Z,14.87
2023-04-17T03:58:18.952Z,15.20
2023-04-17T04:00:50.065Z,14.80
2023-04-17T04:03:18.944Z,13.97
2023-04-17T04:05:47.637Z,14.83
2023-04-17T04:08:16.220Z,15.33
2023-04-17T04:10:45.373Z,13.90
2023-04-17T04:13:14.024Z,14.63
2023-04-17T04:15:42.729Z,14.40
2023-04-17T04:18:12.813Z,14.33
2023-04-17T04:20:41.772Z,15.13
2023-04-17T04:23:10.421Z,14.90
2023-04-17T04:25:41.679Z,14.53
2023-04-17T04:28:10.597Z,14.60
2023-04-17T04:30:39.612Z,14.63
2023-04-17T04:33:08.310Z,15.00
2023-04-17T04:35:38.543Z,15.37
2023-04-17T04:38:07.421Z,14.57
2023-04-17T04:40:38.173Z,14.33
2023-04-17T04:43:07.076Z,15.30
2023-04-17T04:45:35.943Z,13.90
2023-04-17T04:48:04.639Z,14.33
2023-04-17T04:50:33.314Z,14.33
2023-04-17T04:53:03.272Z,13.90
2023-04-17T04:55:31.930Z,14.70
2023-04-17T04:58:00.541Z,14.17
2023-04-17T05:00:29.446Z,13.93
2023-04-17T05:02:58.487Z,15.17
2023-04-17T05:05:27.284Z,14.83
2023-04-17T05:07:55.855Z,14.10
2023-04-17T05:10:25.913Z,14.13
2023-04-17T05:12:54.512Z,14.23
2023-04-17T05:15:23.207Z,14.37
2023-04-17T05:17:51.900Z,14.30
2023-04-17T05:20:20.578Z,14.17
2023-04-17T05:22:49.465Z,14.03
2023-04-17T05:25:19.628Z,14.50
2023-04-17T05:27:49.647Z,15.50
2023-04-17T05:30:18.274Z,14.90
2023-04-17T05:32:48.495Z,14.37
2023-04-17T05:35:17.242Z,15.00
2023-04-17T05:37:45.900Z,13.57
2023-04-17T05:40:14.532Z,14.90
2023-04-17T05:42:43.190Z,14.67
2023-04-17T05:45:15.620Z,14.60
2023-04-17T05:47:44.253Z,14.30
2023-04-17T05:50:12.931Z,13.47
2023-04-17T05:52:41.690Z,13.67
2023-04-17T05:55:10.755Z,13.60
2023-04-17T05:57:39.391Z,14.03
2023-04-17T06:00:12.924Z,12.53
2023-04-17T06:02:43.832Z,13.20
2023-04-17T06:05:12.947Z,12.47
2023-04-17T06:07:41.950Z,13.83
2023-04-17T06:10:11.123Z,12.63
2023-04-17T06:12:40.014Z,12.00
2023-04-17T06:15:10.048Z,12.10
2023-04-17T06:17:38.795Z,13.20
2023-04-17T06:20:10.489Z,12.50
2023-04-17T06:22:39.751Z,14.10
2023-04-17T06:25:09.331Z,12.73
2023-04-17T06:27:37.911Z,12.77
2023-04-17T06:30:07.834Z,12.87
2023-04-17T06:32:36.582Z,13.07
2023-04-17T06:35:05.742Z,12.30
2023-04-17T06:37:35.789Z,12.67
2023-04-17T06:40:04.888Z,12.30
2023-04-17T06:42:35.005Z,12.80
2023-04-17T06:45:03.741Z,12.40
2023-04-17T06:47:32.405Z,12.30
2023-04-17T06:50:01.157Z,12.60
2023-04-17T06:52:29.822Z,12.57
2023-04-17T06:54:59.973Z,12.93
2023-04-17T06:57:28.562Z,13.87
2023-04-17T06:59:57.208Z,13.27
2023-04-17T07:02:25.952Z,12.80
2023-04-17T07:04:54.892Z,11.37
2023-04-17T07:07:23.746Z,12.00
2023-04-17T07:09:52.398Z,11.80
2023-04-17T07:12:22.762Z,11.17
2023-04-17T07:14:51.883Z,11.20
2023-04-17T07:17:20.518Z,11.37
2023-04-17T07:19:49.554Z,11.50
2023-04-17T07:22:18.155Z,10.30
2023-04-17T07:24:46.777Z,10.27
2023-04-17T07:27:15.716Z,10.00
2023-04-17T07:29:46.779Z,10.10
2023-04-17T07:32:16.096Z,9.90
2023-04-17T07:34:44.685Z,8.83
2023-04-17T07:37:14.992Z,8.90
2023-04-17T07:39:43.765Z,8.80
2023-04-17T07:42:12.433Z,9.60
2023-04-17T07:44:41.143Z,9.07
2023-04-17T07:47:11.366Z,9.17
2023-04-17T07:49:40.586Z,9.47
2023-04-17T07:52:09.333Z,9.00
2023-04-17T07:54:38.154Z,7.93
2023-04-17T07:57:08.272Z,9.13
2023-04-17T07:59:37.612Z,8.40
2023-04-17T08:02:06.559Z,7.93
2023-04-17T08:04:37.681Z,7.33
2023-04-17T08:07:06.891Z,7.50
2023-04-17T08:09:35.532Z,7.70
2023-04-17T08:12:04.263Z,7.13
2023-04-17T08:14:32.988Z,7.60
2023-04-17T08:17:01.945Z,7.60
2023-04-17T08:19:30.781Z,7.37
2023-04-17T08:22:04.391Z,7.10
2023-04-17T08:24:33.197Z,7.10
2023-04-17T08:27:01.906Z,6.87
2023-04-17T08:29:30.632Z,6.00
2023-04-17T08:32:13.170Z,6.10
2023-04-17T08:34:43.281Z,5.47
2023-04-17T08:37:13.500Z,6.00
2023-04-17T08:39:42.134Z,6.20
2023-04-17T08:42:16.475Z,6.40
2023-04-17T08:44:46.391Z,6.27
2023-04-17T08:47:19.553Z,6.43
2023-04-17T08:49:50.364Z,6.07
2023-04-17T08:52:20.471Z,6.17
2023-04-17T08:54:51.355Z,6.90
2023-04-17T08:57:20.355Z,6.03
2023-04-17T08:59:48.970Z,6.13
2023-04-17T09:02:18.039Z,6.60
2023-04-17T09:04:48.416Z,5.87
2023-04-17T09:07:17.445Z,4.87
2023-04-17T09:09:51.437Z,5.50
2023-04-17T09:12:20.691Z,5.60
2023-04-17T09:14:49.463Z,5.33
2023-04-17T09:17:19.438Z,4.67
2023-04-17T09:20:07.691Z,4.23
2023-04-17T09:22:37.677Z,4.30
2023-04-17T09:25:16.905Z,4.63
2023-04-17T09:27:45.664Z,4.83
2023-04-17T09:30:14.719Z,5.50
2023-04-17T09:32:43.445Z,4.80
2023-04-17T09:35:12.269Z,4.80
2023-04-17T09:37:49.844Z,4.33
2023-04-17T09:40:20.845Z,4.57
2023-04-17T09:42:57.631Z,3.73
2023-04-17T09:45:28.173Z,3.70
2023-04-17T09:47:56.888Z,3.80
2023-04-17T09:50:25.794Z,4.10
2023-04-17T09:52:55.910Z,3.60
2023-04-17T09:55:26.748Z,3.87
2023-04-17T09:57:56.463Z,3.50
2023-04-17T10:00:26.987Z,2.47
2023-04-17T10:02:57.502Z,2.93
2023-04-17T10:05:27.570Z,3.50
2023-04-17T10:07:56.792Z,3.53
2023-04-17T10:10:30.221Z,4.30
2023-04-17T10:13:00.591Z,4.13
2023-04-17T10:15:29.639Z,4.30
2023-04-17T10:18:19.679Z,4.13
2023-04-17T10:20:48.502Z,5.30
2023-04-17T10:23:33.811Z,4.80
2023-04-17T10:26:37.916Z,5.13
2023-04-17T10:29:08.189Z,6.20
2023-04-17T10:32:16.931Z,6.40
2023-04-17T10:34:46.314Z,6.07
2023-04-17T10:37:16.125Z,6.57
2023-04-17T10:40:07.255Z,4.57
2023-04-17T10:42:36.072Z,5.90
2023-04-17T10:45:19.284Z,6.00
2023-04-17T10:47:59.475Z,5.47
2023-04-17T10:50:29.357Z,6.03
2023-04-17T10:52:57.935Z,5.27
2023-04-17T10:55:27.767Z,5.60
2023-04-17T10:57:59.398Z,5.30
2023-04-17T11:00:38.161Z,5.40
2023-04-17T11:03:07.698Z,5.03
2023-04-17T11:05:36.586Z,4.83
2023-04-17T11:08:05.420Z,5.03
2023-04-17T11:10:36.495Z,4.93
2023-04-17T11:13:05.471Z,4.93
2023-04-17T11:15:36.607Z,4.67
2023-04-17T11:18:05.451Z,5.40
2023-04-17T11:20:37.480Z,4.60
2023-04-17T11:23:07.318Z,5.20
2023-04-17T11:25:37.179Z,5.27
2023-04-17T11:28:07.677Z,5.30
2023-04-17T11:30:40.578Z,5.00
2023-04-17T11:33:09.928Z,4.57
2023-04-17T11:35:40.310Z,4.50
2023-04-17T11:38:17.662Z,5.20
2023-04-17T11:40:48.575Z,5.03
2023-04-17T11:43:17.400Z,4.97
2023-04-17T11:45:48.591Z,4.70
2023-04-17T11:48:19.801Z,3.70
2023-04-17T11:50:48.489Z,3.90
2023-04-17T11:53:18.497Z,3.90
2023-04-17T11:55:47.805Z,4.57
2023-04-17T11:58:16.702Z,4.73
2023-04-17T12:00:47.021Z,4.20
2023-04-17T12:03:36.341Z,3.17
2023-04-17T12:06:06.532Z,3.40
2023-04-17T12:08:44.510Z,3.77
2023-04-17T12:11:34.476Z,2.90
2023-04-17T12:14:05.079Z,3.30
2023-04-17T12:16:35.153Z,3.23
2023-04-17T12:19:03.860Z,3.53
2023-04-17T12:21:32.593Z,4.00
2023-04-17T12:24:01.238Z,3.87
2023-04-17T12:26:29.922Z,4.07
2023-04-17T12:28:58.578Z,4.13
2023-04-17T12:31:27.286Z,4.03
2023-04-17T12:33:57.370Z,4.30
2023-04-17T12:36:26.044Z,3.93
2023-04-17T12:38:54.773Z,5.20
2023-04-17T12:41:25.402Z,4.87
2023-04-17T12:43:54.509Z,4.90
2023-04-17T12:46:23.179Z,4.80
2023-04-17T12:48:58.211Z,4.80
2023-04-17T12:51:28.841Z,5.50
2023-04-17T12:53:58.057Z,4.43
2023-04-17T12:56:26.738Z,5.63
2023-04-17T12:58:55.611Z,4.40
2023-04-17T13:01:25.363Z,4.60
2023-04-17T13:03:54.313Z,4.40
2023-04-17T13:06:23.293Z,4.80
2023-04-17T13:08:53.693Z,4.33
2023-04-17T13:11:22.638Z,5.17
2023-04-17T13:13:51.355Z,4.20
2023-04-17T13:16:20.097Z,4.67
2023-04-17T13:18:48.769Z,5.47
2023-04-17T13:21:17.398Z,4.57
2023-04-17T13:23:45.980Z,5.90
2023-04-17T13:26:16.012Z,5.40
2023-04-17T13:28:44.714Z,4.60
2023-04-17T13:31:14.193Z,5.17
2023-04-17T13:33:42.996Z,5.63
2023-04-17T13:36:11.902Z,5.80
2023-04-17T13:38:40.541Z,5.87
2023-04-17T13:41:09.163Z,5.80
2023-04-17T13:43:39.205Z,5.20
2023-04-17T13:46:09.144Z,4.67
2023-04-17T13:48:37.979Z,5.10
2023-04-17T13:51:06.876Z,5.60
2023-04-17T13:53:35.522Z,4.70
2023-04-17T13:56:04.411Z,5.30
2023-04-17T13:58:34.470Z,5.80
2023-04-17T14:01:04.579Z,5.03
2023-04-17T14:03:33.577Z,4.43
2023-04-17T14:06:02.487Z,4.50
2023-04-17T14:08:31.127Z,4.20
2023-04-17T14:10:59.827Z,4.70
2023-04-17T14:13:28.598Z,4.67
2023-04-17T14:15:57.619Z,5.20
2023-04-17T14:18:28.492Z,4.70
2023-04-17T14:20:57.176Z,4.60
2023-04-17T14:23:25.807Z,4.77
2023-04-17T14:25:54.541Z,4.80
2023-04-17T14:28:24.054Z,5.47
2023-04-17T14:30:52.712Z,5.00
2023-04-17T14:33:21.995Z,4.60
2023-04-17T14:35:53.296Z,5.53
2023-04-17T14:38:22.011Z,4.80
2023-04-17T14:40:50.764Z,5.73
2023-04-17T14:43:19.373Z,5.17
2023-04-17T14:45:48.058Z,4.73
2023-04-17T14:48:17.131Z,5.10
2023-04-17T14:50:45.838Z,5.00
2023-04-17T14:53:16.046Z,4.73
2023-04-17T14:55:44.684Z,4.97
2023-04-17T14:58:13.446Z,4.70
2023-04-17T15:00:42.097Z,4.60
2023-04-17T15:03:10.947Z,4.60
2023-04-17T15:05:39.810Z,5.20
2023-04-17T15:08:08.534Z,4.00
2023-04-17T15:10:50.091Z,5.30
2023-04-17T15:13:19.703Z,4.50
2023-04-17T15:15:48.341Z,4.50
2023-04-17T15:18:16.972Z,4.90
2023-04-17T15:20:46.404Z,4.33
2023-04-17T15:23:15.447Z,4.30
2023-04-17T15:25:45.705Z,4.60
2023-04-17T15:28:14.388Z,3.97
2023-04-17T15:30:43.073Z,3.80
2023-04-17T15:33:12.294Z,4.33
2023-04-17T15:35:41.022Z,3.50
2023-04-17T15:38:09.779Z,3.50
2023-04-17T15:40:38.453Z,4.03
2023-04-17T15:43:10.553Z,3.50
2023-04-17T15:45:39.325Z,4.30
2023-04-17T15:48:08.008Z,4.87
2023-04-17T15:50:36.757Z,3.67
2023-04-17T15:53:05.422Z,3.93
2023-04-17T15:55:36.291Z,3.37
2023-04-17T15:58:05.020Z,3.90
2023-04-17T16:00:35.012Z,3.53
2023-04-17T16:03:03.875Z,3.33
2023-04-17T16:05:32.651Z,3.40
2023-04-17T16:08:02.180Z,3.73
2023-04-17T16:10:31.080Z,3.73
2023-04-17T16:12:59.791Z,3.43
2023-04-17T16:15:28.789Z,3.00
2023-04-17T16:17:58.838Z,2.93
2023-04-17T16:20:27.598Z,2.80
2023-04-17T16:22:56.297Z,2.90
2023-04-17T16:25:25.284Z,3.00
2023-04-17T16:27:53.884Z,3.70
2023-04-17T16:30:23.165Z,2.73
2023-04-17T16:32:51.830Z,3.07
2023-04-17T16:35:22.108Z,3.00
2023-04-17T16:37:50.759Z,3.63
2023-04-17T16:40:19.777Z,2.63
2023-04-17T16:42:48.491Z,3.07
2023-04-17T16:45:17.156Z,3.20
2023-04-17T16:47:46.084Z,2.70
2023-04-17T16:50:14.865Z,3.20
2023-04-17T16:52:44.978Z,3.23
2023-04-17T16:55:13.783Z,3.60
2023-04-17T16:57:43.830Z,2.90
2023-04-17T17:00:13.828Z,3.30
2023-04-17T17:02:42.619Z,3.80
2023-04-17T17:05:11.527Z,2.93
2023-04-17T17:07:40.334Z,4.03
2023-04-17T17:10:11.347Z,2.80
2023-04-17T17:12:40.016Z,2.97
2023-04-17T17:15:09.049Z,3.00
2023-04-17T17:17:37.729Z,2.30
2023-04-17T17:20:08.048Z,2.73
2023-04-17T17:22:36.649Z,2.57
2023-04-17T17:25:06.135Z,2.93
2023-04-17T17:27:36.108Z,2.40
2023-04-17T17:30:05.255Z,2.67
2023-04-17T17:32:33.942Z,2.77
2023-04-17T17:35:02.605Z,2.30
2023-04-17T17:37:31.313Z,2.20
2023-04-17T17:40:00.032Z,2.23
2023-04-17T17:42:28.649Z,2.80
2023-04-17T17:44:58.661Z,2.37
2023-04-17T17:47:27.508Z,2.43
2023-04-17T17:49:56.283Z,2.20
2023-04-17T17:52:24.940Z,1.93
2023-04-17T17:54:53.743Z,2.00
2023-04-17T17:57:22.433Z,2.00
2023-04-17T17:59:51.164Z,2.63
2023-04-17T18:02:21.368Z,10.00
2023-04-17T18:04:50.404Z,2.87
2023-04-17T18:07:19.651Z,2.17
2023-04-17T18:09:50.584Z,2.20
2023-04-17T18:12:19.442Z,1.80
2023-04-17T18:14:48.084Z,1.83
2023-04-17T18:17:16.749Z,1.80
2023-04-17T18:19:46.756Z,1.83
2023-04-17T18:22:15.846Z,2.00
2023-04-17T18:24:44.447Z,1.80
2023-04-17T18:27:13.158Z,1.90
2023-04-17T18:29:41.800Z,1.80
2023-04-17T18:32:10.781Z,1.73
2023-04-17T18:34:39.462Z,1.63
2023-04-17T18:37:09.563Z,2.07
2023-04-17T18:39:38.231Z,2.00
2023-04-17T18:42:07.036Z,2.33
2023-04-17T18:44:35.782Z,1.83
2023-04-17T18:47:04.728Z,2.00
2023-04-17T18:49:33.452Z,1.93
2023-04-17T18:52:03.264Z,1.70
2023-04-17T18:54:33.816Z,2.33
2023-04-17T18:57:02.543Z,2.30
2023-04-17T18:59:31.350Z,1.70
2023-04-17T19:01:59.943Z,2.10
2023-04-17T19:04:30.310Z,1.60
2023-04-17T19:06:59.082Z,1.80
2023-04-17T19:09:27.767Z,1.57
2023-04-17T19:11:58.457Z,1.50
2023-04-17T19:14:28.446Z,1.23
2023-04-17T19:16:57.264Z,1.60
2023-04-17T19:19:25.899Z,1.30
2023-04-17T19:21:54.518Z,1.53
2023-04-17T19:24:23.160Z,1.53
2023-04-17T19:26:51.799Z,1.53
2023-04-17T19:29:21.799Z,1.60
2023-04-17T19:31:50.463Z,1.50
2023-04-17T19:34:19.138Z,1.90
2023-04-17T19:36:48.024Z,1.93
2023-04-17T19:39:16.659Z,2.07
2023-04-17T19:41:50.588Z,2.00
2023-04-17T19:44:20.775Z,2.30
2023-04-17T19:46:49.454Z,2.47
2023-04-17T19:49:18.127Z,1.83
2023-04-17T19:51:46.903Z,2.60
2023-04-17T19:54:15.899Z,2.13
2023-04-17T19:56:44.613Z,2.10
2023-04-17T19:59:14.088Z,2.23
2023-04-17T20:01:44.892Z,2.20
2023-04-17T20:04:13.717Z,2.50
2023-04-17T20:06:42.478Z,2.47
2023-04-17T20:09:13.280Z,2.90
2023-04-17T20:11:43.332Z,2.70
2023-04-17T20:14:14.670Z,2.33
2023-04-17T20:16:46.365Z,2.70
2023-04-17T20:19:17.577Z,2.50
2023-04-17T20:21:47.000Z,2.60
2023-04-17T20:24:16.469Z,2.70
2023-04-17T20:26:45.604Z,3.00
2023-04-17T20:29:14.577Z,2.83
2023-04-17T20:31:44.907Z,3.20
2023-04-17T20:34:13.585Z,3.40
2023-04-17T20:36:42.198Z,2.60
2023-04-17T20:39:11.081Z,3.47
2023-04-17T20:41:39.937Z,3.60
2023-04-17T20:44:09.434Z,3.87
2023-04-17T20:46:38.163Z,4.37
2023-04-17T20:49:08.219Z,3.80
2023-04-17T20:51:36.913Z,3.60
2023-04-17T20:54:05.782Z,4.53
2023-04-17T20:56:34.572Z,4.53
2023-04-17T20:59:03.204Z,4.33
2023-04-17T21:01:31.866Z,4.53
2023-04-17T21:04:00.529Z,5.00
2023-04-17T21:06:30.683Z,4.80
2023-04-17T21:08:59.264Z,4.87
2023-04-17T21:11:27.962Z,5.40
2023-04-17T21:13:58.380Z,5.57
2023-04-17T21:16:27.176Z,5.50
2023-04-17T21:18:55.844Z,5.50
2023-04-17T21:21:24.427Z,5.73
2023-04-17T21:23:54.443Z,5.97
2023-04-17T21:26:23.090Z,5.90
2023-04-17T21:28:51.673Z,6.43
2023-04-17T21:31:20.314Z,6.10
2023-04-17T21:33:48.903Z,6.60
2023-04-17T21:36:19.289Z,5.90
2023-04-17T21:38:47.950Z,7.20
2023-04-17T21:41:17.958Z,7.00
2023-04-17T21:43:46.643Z,6.87
2023-04-17T21:46:15.392Z,7.30
2023-04-17T21:48:44.021Z,7.80
2023-04-17T21:51:12.639Z,7.50
2023-04-17T21:53:43.757Z,8.60
2023-04-17T21:56:12.369Z,7.70
2023-04-17T21:58:42.302Z,7.70
2023-04-17T22:01:10.966Z,7.70
2023-04-17T22:03:39.602Z,7.17
2023-04-17T22:06:08.542Z,7.77
2023-04-17T22:08:37.187Z,8.30
2023-04-17T22:11:06.154Z,8.10
2023-04-17T22:13:35.092Z,8.67
2023-04-17T22:16:05.366Z,7.80
2023-04-17T22:18:34.081Z,8.17
2023-04-17T22:21:02.887Z,8.57
2023-04-17T22:23:31.555Z,8.20
2023-04-17T22:26:00.747Z,8.03
2023-04-17T22:28:30.785Z,9.33
2023-04-17T22:30:59.944Z,9.30
2023-04-17T22:33:29.990Z,10.20
2023-04-17T22:35:58.624Z,8.87
2023-04-17T22:38:27.351Z,9.63
2023-04-17T22:40:56.037Z,8.60
2023-04-17T22:43:24.680Z,9.13
2023-04-17T22:45:53.333Z,10.10
2023-04-17T22:48:24.505Z,11.17
2023-04-17T22:50:55.774Z,9.53
2023-04-17T22:53:24.428Z,9.83
2023-04-17T22:56:01.387Z,9.70
2023-04-17T22:58:31.981Z,10.20
2023-04-17T23:01:00.950Z,11.70
2023-04-17T23:03:29.659Z,9.70
2023-04-17T23:05:59.679Z,9.30
2023-04-17T23:08:30.913Z,10.30
2023-04-17T23:11:00.319Z,10.70
2023-04-17T23:13:29.216Z,10.50
2023-04-17T23:15:57.927Z,9.60
2023-04-17T23:18:26.616Z,10.03
2023-04-17T23:20:55.258Z,10.23
2023-04-17T23:23:25.300Z,11.30
2023-04-17T23:25:53.917Z,10.17
2023-04-17T23:28:22.622Z,10.33
2023-04-17T23:30:51.265Z,10.13
2023-04-17T23:33:19.829Z,9.63
2023-04-17T23:35:48.421Z,10.50
2023-04-17T23:38:17.042Z,10.67
2023-04-17T23:40:46.970Z,10.30
2023-04-17T23:43:16.126Z,10.37
2023-04-17T23:45:44.694Z,10.40
2023-04-17T23:48:13.337Z,10.70
2023-04-17T23:50:42.242Z,9.40
2023-04-17T23:53:10.972Z,10.20
2023-04-17T23:55:39.632Z,9.70
2023-04-17T23:58:09.660Z,10.27
